sensor_id;sensor_type;location;lat;lon;timestamp;temperature;humidity
25963;DHT22;13760;52.588;13.406;2023-07-08T00:00:49;17.10;99.90
25963;DHT22;13760;52.588;13.406;2023-07-08T00:03:16;17.00;99.90
25963;DHT22;13760;52.588;13.406;2023-07-08T00:05:42;17.00;99.90
25963;DHT22;13760;52.588;13.406;2023-07-08T00:08:14;17.00;99.90
25963;DHT22;13760;52.588;13.406;2023-07-08T00:10:40;16.90;99.90
25963;DHT22;13760;52.588;13.406;2023-07-08T00:13:07;16.90;99.90
25963;DHT22;13760;52.588;13.406;2023-07-08T00:15:33;16.90;99.90
25963;DHT22;13760;52.588;13.406;2023-07-08T00:18:13;16.80;99.90
25963;DHT22;13760;52.588;13.406;2023-07-08T00:20:43;16.80;99.90
25963;DHT22;13760;52.588;13.406;2023-07-08T00:23:10;16.80;99.90
25963;DHT22;13760;52.588;13.406;2023-07-08T00:25:43;16.80;99.90
25963;DHT22;13760;52.588;13.406;2023-07-08T00:28:11;16.80;99.90
25963;DHT22;13760;52.588;13.406;2023-07-08T00:30:38;16.70;99.90
25963;DHT22;13760;52.588;13.406;2023-07-08T00:33:05;16.70;99.90
25963;DHT22;13760;52.588;13.406;2023-07-08T00:35:33;16.60;99.90
25963;DHT22;13760;52.588;13.406;2023-07-08T00:37:59;16.60;99.90
25963;DHT22;13760;52.588;13.406;2023-07-08T00:40:30;16.60;99.90
25963;DHT22;13760;52.588;13.406;2023-07-08T00:42:56;16.50;99.90
25963;DHT22;13760;52.588;13.406;2023-07-08T00:45:40;16.50;99.90
25963;DHT22;13760;52.588;13.406;2023-07-08T00:48:21;16.50;99.90
25963;DHT22;13760;52.588;13.406;2023-07-08T00:50:48;16.60;99.90
25963;DHT22;13760;52.588;13.406;2023-07-08T00:55:47;16.50;99.90
25963;DHT22;13760;52.588;13.406;2023-07-08T00:58:15;16.50;99.90
25963;DHT22;13760;52.588;13.406;2023-07-08T01:00:42;16.50;99.90
25963;DHT22;13760;52.588;13.406;2023-07-08T01:03:08;16.50;99.90
25963;DHT22;13760;52.588;13.406;2023-07-08T01:05:33;16.40;99.90
25963;DHT22;13760;52.588;13.406;2023-07-08T01:08:02;16.40;99.90
25963;DHT22;13760;52.588;13.406;2023-07-08T01:10:33;16.30;99.90
25963;DHT22;13760;52.588;13.406;2023-07-08T01:16:24;16.20;99.90
25963;DHT22;13760;52.588;13.406;2023-07-08T01:18:50;16.20;99.90
25963;DHT22;13760;52.588;13.406;2023-07-08T01:21:37;16.20;99.90
25963;DHT22;13760;52.588;13.406;2023-07-08T01:24:09;16.20;99.90
25963;DHT22;13760;52.588;13.406;2023-07-08T01:26:40;16.10;99.90
25963;DHT22;13760;52.588;13.406;2023-07-08T01:29:08;16.10;99.90
25963;DHT22;13760;52.588;13.406;2023-07-08T01:31:35;16.10;99.90
25963;DHT22;13760;52.588;13.406;2023-07-08T01:34:01;16.10;99.90
25963;DHT22;13760;52.588;13.406;2023-07-08T01:36:31;16.00;99.90
25963;DHT22;13760;52.588;13.406;2023-07-08T01:38:58;16.00;99.90
25963;DHT22;13760;52.588;13.406;2023-07-08T01:41:24;16.00;99.90
25963;DHT22;13760;52.588;13.406;2023-07-08T01:43:49;15.90;99.90
25963;DHT22;13760;52.588;13.406;2023-07-08T01:46:18;15.90;99.90
25963;DHT22;13760;52.588;13.406;2023-07-08T01:48:49;15.90;99.90
25963;DHT22;13760;52.588;13.406;2023-07-08T01:51:16;15.90;99.90
25963;DHT22;13760;52.588;13.406;2023-07-08T01:53:42;15.90;99.90
25963;DHT22;13760;52.588;13.406;2023-07-08T01:56:14;15.80;99.90
25963;DHT22;13760;52.588;13.406;2023-07-08T01:58:40;15.80;99.90
25963;DHT22;13760;52.588;13.406;2023-07-08T02:01:06;15.80;99.90
25963;DHT22;13760;52.588;13.406;2023-07-08T02:03:32;15.80;99.90
25963;DHT22;13760;52.588;13.406;2023-07-08T02:06:01;15.80;99.90
25963;DHT22;13760;52.588;13.406;2023-07-08T02:08:27;15.80;99.90
25963;DHT22;13760;52.588;13.406;2023-07-08T02:10:56;15.80;99.90
25963;DHT22;13760;52.588;13.406;2023-07-08T02:13:23;15.70;99.90
25963;DHT22;13760;52.588;13.406;2023-07-08T02:15:52;15.70;99.90
25963;DHT22;13760;52.588;13.406;2023-07-08T02:18:18;15.60;99.90
25963;DHT22;13760;52.588;13.406;2023-07-08T02:20:44;15.60;99.90
25963;DHT22;13760;52.588;13.406;2023-07-08T02:23:10;15.60;99.90
25963;DHT22;13760;52.588;13.406;2023-07-08T02:25:36;15.60;99.90
25963;DHT22;13760;52.588;13.406;2023-07-08T02:28:01;15.60;99.90
25963;DHT22;13760;52.588;13.406;2023-07-08T02:30:27;15.60;99.90
25963;DHT22;13760;52.588;13.406;2023-07-08T02:32:53;15.50;99.90
25963;DHT22;13760;52.588;13.406;2023-07-08T02:35:29;15.50;99.90
25963;DHT22;13760;52.588;13.406;2023-07-08T02:37:56;15.40;99.90
25963;DHT22;13760;52.588;13.406;2023-07-08T02:40:22;15.40;99.90
25963;DHT22;13760;52.588;13.406;2023-07-08T02:42:48;15.40;99.90
25963;DHT22;13760;52.588;13.406;2023-07-08T02:45:17;15.30;99.90
25963;DHT22;13760;52.588;13.406;2023-07-08T02:47:43;15.30;99.90
25963;DHT22;13760;52.588;13.406;2023-07-08T02:50:09;15.30;99.90
25963;DHT22;13760;52.588;13.406;2023-07-08T02:52:35;15.20;99.90
25963;DHT22;13760;52.588;13.406;2023-07-08T02:55:01;15.20;99.90
25963;DHT22;13760;52.588;13.406;2023-07-08T02:57:27;15.20;99.90
25963;DHT22;13760;52.588;13.406;2023-07-08T02:59:53;15.20;99.90
25963;DHT22;13760;52.588;13.406;2023-07-08T03:02:18;15.20;99.90
25963;DHT22;13760;52.588;13.406;2023-07-08T03:04:44;15.20;99.90
25963;DHT22;13760;52.588;13.406;2023-07-08T03:07:13;15.20;99.90
25963;DHT22;13760;52.588;13.406;2023-07-08T03:09:39;15.20;99.90
25963;DHT22;13760;52.588;13.406;2023-07-08T03:12:07;15.10;99.90
25963;DHT22;13760;52.588;13.406;2023-07-08T03:14:33;15.10;99.90
25963;DHT22;13760;52.588;13.406;2023-07-08T03:16:58;15.10;99.90
25963;DHT22;13760;52.588;13.406;2023-07-08T03:19:24;15.20;99.90
25963;DHT22;13760;52.588;13.406;2023-07-08T03:21:50;15.10;99.90
25963;DHT22;13760;52.588;13.406;2023-07-08T03:24:16;15.10;99.90
25963;DHT22;13760;52.588;13.406;2023-07-08T03:26:44;15.10;99.90
25963;DHT22;13760;52.588;13.406;2023-07-08T03:29:15;15.20;99.90
25963;DHT22;13760;52.588;13.406;2023-07-08T03:31:41;15.10;99.90
25963;DHT22;13760;52.588;13.406;2023-07-08T03:34:09;15.10;99.90
25963;DHT22;13760;52.588;13.406;2023-07-08T03:36:37;15.10;99.90
25963;DHT22;13760;52.588;13.406;2023-07-08T03:39:07;15.20;99.90
25963;DHT22;13760;52.588;13.406;2023-07-08T03:41:32;15.10;99.90
25963;DHT22;13760;52.588;13.406;2023-07-08T03:43:58;15.10;99.90
25963;DHT22;13760;52.588;13.406;2023-07-08T03:46:23;15.00;99.90
25963;DHT22;13760;52.588;13.406;2023-07-08T03:48:52;15.00;99.90
25963;DHT22;13760;52.588;13.406;2023-07-08T03:51:29;15.00;99.90
25963;DHT22;13760;52.588;13.406;2023-07-08T03:53:57;15.10;99.90
25963;DHT22;13760;52.588;13.406;2023-07-08T03:56:26;15.10;99.90
25963;DHT22;13760;52.588;13.406;2023-07-08T03:58:52;15.10;99.90
25963;DHT22;13760;52.588;13.406;2023-07-08T04:01:19;15.10;99.90
25963;DHT22;13760;52.588;13.406;2023-07-08T04:03:46;15.20;99.90
25963;DHT22;13760;52.588;13.406;2023-07-08T04:06:12;15.20;99.90
25963;DHT22;13760;52.588;13.406;2023-07-08T04:08:38;15.20;99.90
25963;DHT22;13760;52.588;13.406;2023-07-08T04:11:03;15.20;99.90
25963;DHT22;13760;52.588;13.406;2023-07-08T04:13:29;15.30;99.90
25963;DHT22;13760;52.588;13.406;2023-07-08T04:15:58;15.30;99.90
25963;DHT22;13760;52.588;13.406;2023-07-08T04:18:26;15.30;99.90
25963;DHT22;13760;52.588;13.406;2023-07-08T04:20:52;15.40;99.90
25963;DHT22;13760;52.588;13.406;2023-07-08T04:23:19;15.40;99.90
25963;DHT22;13760;52.588;13.406;2023-07-08T04:25:45;15.50;99.90
25963;DHT22;13760;52.588;13.406;2023-07-08T04:28:11;15.60;99.90
25963;DHT22;13760;52.588;13.406;2023-07-08T04:30:37;15.60;99.90
25963;DHT22;13760;52.588;13.406;2023-07-08T04:33:07;15.70;99.90
25963;DHT22;13760;52.588;13.406;2023-07-08T04:35:34;15.80;99.90
25963;DHT22;13760;52.588;13.406;2023-07-08T04:38:00;15.90;99.90
25963;DHT22;13760;52.588;13.406;2023-07-08T04:40:26;15.90;99.90
25963;DHT22;13760;52.588;13.406;2023-07-08T04:42:53;15.90;99.90
25963;DHT22;13760;52.588;13.406;2023-07-08T04:45:19;16.00;99.90
25963;DHT22;13760;52.588;13.406;2023-07-08T04:47:47;16.10;99.90
25963;DHT22;13760;52.588;13.406;2023-07-08T04:50:17;16.20;99.90
25963;DHT22;13760;52.588;13.406;2023-07-08T04:52:43;16.20;99.90
25963;DHT22;13760;52.588;13.406;2023-07-08T04:55:09;16.30;99.90
25963;DHT22;13760;52.588;13.406;2023-07-08T04:57:35;16.40;99.90
25963;DHT22;13760;52.588;13.406;2023-07-08T05:00:01;16.50;99.90
25963;DHT22;13760;52.588;13.406;2023-07-08T05:02:26;16.60;99.90
25963;DHT22;13760;52.588;13.406;2023-07-08T05:04:52;16.70;99.90
25963;DHT22;13760;52.588;13.406;2023-07-08T05:07:17;16.80;99.90
25963;DHT22;13760;52.588;13.406;2023-07-08T05:09:43;16.90;99.90
25963;DHT22;13760;52.588;13.406;2023-07-08T05:12:10;17.00;99.90
25963;DHT22;13760;52.588;13.406;2023-07-08T05:14:35;17.10;99.90
25963;DHT22;13760;52.588;13.406;2023-07-08T05:17:03;17.20;99.90
25963;DHT22;13760;52.588;13.406;2023-07-08T05:19:29;17.30;99.90
25963;DHT22;13760;52.588;13.406;2023-07-08T05:21:54;17.40;99.90
25963;DHT22;13760;52.588;13.406;2023-07-08T05:24:20;17.50;99.90
25963;DHT22;13760;52.588;13.406;2023-07-08T05:26:46;17.60;99.90
25963;DHT22;13760;52.588;13.406;2023-07-08T05:29:11;17.70;99.90
25963;DHT22;13760;52.588;13.406;2023-07-08T05:31:37;17.80;99.90
25963;DHT22;13760;52.588;13.406;2023-07-08T05:34:02;18.00;99.90
25963;DHT22;13760;52.588;13.406;2023-07-08T05:36:37;18.10;99.90
25963;DHT22;13760;52.588;13.406;2023-07-08T05:39:04;18.20;99.90
25963;DHT22;13760;52.588;13.406;2023-07-08T05:41:30;18.30;99.90
25963;DHT22;13760;52.588;13.406;2023-07-08T05:43:56;18.30;99.90
25963;DHT22;13760;52.588;13.406;2023-07-08T05:46:22;18.40;99.90
25963;DHT22;13760;52.588;13.406;2023-07-08T05:48:47;18.50;99.90
25963;DHT22;13760;52.588;13.406;2023-07-08T05:51:14;18.60;99.90
25963;DHT22;13760;52.588;13.406;2023-07-08T05:53:39;18.70;99.90
25963;DHT22;13760;52.588;13.406;2023-07-08T05:56:05;18.80;99.90
25963;DHT22;13760;52.588;13.406;2023-07-08T05:58:34;18.80;99.90
25963;DHT22;13760;52.588;13.406;2023-07-08T06:00:59;18.90;99.90
25963;DHT22;13760;52.588;13.406;2023-07-08T06:03:27;19.00;99.90
25963;DHT22;13760;52.588;13.406;2023-07-08T06:05:53;19.10;99.90
25963;DHT22;13760;52.588;13.406;2023-07-08T06:08:20;19.20;99.90
25963;DHT22;13760;52.588;13.406;2023-07-08T06:10:46;19.30;99.90
25963;DHT22;13760;52.588;13.406;2023-07-08T06:13:13;19.40;99.90
25963;DHT22;13760;52.588;13.406;2023-07-08T06:15:39;19.50;99.90
25963;DHT22;13760;52.588;13.406;2023-07-08T06:18:05;19.70;99.90
25963;DHT22;13760;52.588;13.406;2023-07-08T06:20:31;19.80;99.90
25963;DHT22;13760;52.588;13.406;2023-07-08T06:22:57;19.90;99.90
25963;DHT22;13760;52.588;13.406;2023-07-08T06:25:22;20.00;99.90
25963;DHT22;13760;52.588;13.406;2023-07-08T06:27:48;20.10;99.90
25963;DHT22;13760;52.588;13.406;2023-07-08T06:30:14;20.20;99.90
25963;DHT22;13760;52.588;13.406;2023-07-08T06:32:39;20.30;99.90
25963;DHT22;13760;52.588;13.406;2023-07-08T06:35:05;20.40;99.90
25963;DHT22;13760;52.588;13.406;2023-07-08T06:37:31;20.50;99.90
25963;DHT22;13760;52.588;13.406;2023-07-08T06:39:57;20.70;99.90
25963;DHT22;13760;52.588;13.406;2023-07-08T06:42:22;20.80;99.90
25963;DHT22;13760;52.588;13.406;2023-07-08T06:44:51;20.90;99.90
25963;DHT22;13760;52.588;13.406;2023-07-08T06:47:18;21.10;99.90
25963;DHT22;13760;52.588;13.406;2023-07-08T06:49:46;21.20;99.90
25963;DHT22;13760;52.588;13.406;2023-07-08T06:52:15;21.40;99.90
25963;DHT22;13760;52.588;13.406;2023-07-08T06:57:45;21.80;99.90
25963;DHT22;13760;52.588;13.406;2023-07-08T07:00:19;22.10;99.90
25963;DHT22;13760;52.588;13.406;2023-07-08T07:02:45;22.30;99.90
25963;DHT22;13760;52.588;13.406;2023-07-08T07:05:11;22.50;99.90
25963;DHT22;13760;52.588;13.406;2023-07-08T07:07:39;22.70;99.90
25963;DHT22;13760;52.588;13.406;2023-07-08T07:10:05;23.00;99.90
25963;DHT22;13760;52.588;13.406;2023-07-08T07:12:33;23.20;99.90
25963;DHT22;13760;52.588;13.406;2023-07-08T07:15:00;23.40;99.90
25963;DHT22;13760;52.588;13.406;2023-07-08T07:17:25;23.70;99.90
25963;DHT22;13760;52.588;13.406;2023-07-08T07:19:54;23.90;99.90
25963;DHT22;13760;52.588;13.406;2023-07-08T07:22:20;24.10;99.90
25963;DHT22;13760;52.588;13.406;2023-07-08T07:24:52;24.30;99.90
25963;DHT22;13760;52.588;13.406;2023-07-08T07:27:24;24.50;99.90
25963;DHT22;13760;52.588;13.406;2023-07-08T07:29:51;24.60;99.90
25963;DHT22;13760;52.588;13.406;2023-07-08T07:32:21;24.70;99.90
25963;DHT22;13760;52.588;13.406;2023-07-08T07:34:58;24.90;99.90
25963;DHT22;13760;52.588;13.406;2023-07-08T07:37:25;24.90;99.90
25963;DHT22;13760;52.588;13.406;2023-07-08T07:39:51;25.00;99.90
25963;DHT22;13760;52.588;13.406;2023-07-08T07:42:18;25.10;99.90
25963;DHT22;13760;52.588;13.406;2023-07-08T07:44:44;25.10;99.90
25963;DHT22;13760;52.588;13.406;2023-07-08T07:47:22;25.20;99.90
25963;DHT22;13760;52.588;13.406;2023-07-08T07:49:48;25.30;99.60
25963;DHT22;13760;52.588;13.406;2023-07-08T07:52:13;25.40;99.40
25963;DHT22;13760;52.588;13.406;2023-07-08T07:54:46;25.60;98.20
25963;DHT22;13760;52.588;13.406;2023-07-08T07:57:21;25.70;97.00
25963;DHT22;13760;52.588;13.406;2023-07-08T08:07:34;26.10;96.70
25963;DHT22;13760;52.588;13.406;2023-07-08T08:10:04;26.20;95.70
25963;DHT22;13760;52.588;13.406;2023-07-08T08:12:36;26.10;94.60
25963;DHT22;13760;52.588;13.406;2023-07-08T08:15:08;26.10;95.60
25963;DHT22;13760;52.588;13.406;2023-07-08T08:17:45;26.30;95.30
25963;DHT22;13760;52.588;13.406;2023-07-08T08:20:18;26.50;95.90
25963;DHT22;13760;52.588;13.406;2023-07-08T08:22:50;26.60;94.70
25963;DHT22;13760;52.588;13.406;2023-07-08T08:25:20;26.80;93.70
25963;DHT22;13760;52.588;13.406;2023-07-08T08:27:49;27.00;92.40
25963;DHT22;13760;52.588;13.406;2023-07-08T08:30:22;26.90;91.20
25963;DHT22;13760;52.588;13.406;2023-07-08T08:32:53;26.90;91.30
25963;DHT22;13760;52.588;13.406;2023-07-08T08:35:22;27.10;91.80
25963;DHT22;13760;52.588;13.406;2023-07-08T08:37:57;27.30;92.60
25963;DHT22;13760;52.588;13.406;2023-07-08T08:40:48;27.50;90.80
25963;DHT22;13760;52.588;13.406;2023-07-08T08:43:38;27.60;85.30
25963;DHT22;13760;52.588;13.406;2023-07-08T08:49:22;27.80;83.10
25963;DHT22;13760;52.588;13.406;2023-07-08T08:51:53;27.90;78.00
25963;DHT22;13760;52.588;13.406;2023-07-08T08:54:19;27.90;80.80
25963;DHT22;13760;52.588;13.406;2023-07-08T08:57:27;28.10;80.80
25963;DHT22;13760;52.588;13.406;2023-07-08T08:59:59;28.30;83.10
25963;DHT22;13760;52.588;13.406;2023-07-08T09:02:42;28.40;82.10
25963;DHT22;13760;52.588;13.406;2023-07-08T09:05:16;28.60;81.20
25963;DHT22;13760;52.588;13.406;2023-07-08T09:08:04;28.60;78.60
25963;DHT22;13760;52.588;13.406;2023-07-08T09:10:47;28.20;75.00
25963;DHT22;13760;52.588;13.406;2023-07-08T09:13:20;28.30;77.50
25963;DHT22;13760;52.588;13.406;2023-07-08T09:15:57;28.40;77.70
25963;DHT22;13760;52.588;13.406;2023-07-08T09:18:37;28.60;78.20
25963;DHT22;13760;52.588;13.406;2023-07-08T09:21:25;28.50;65.60
25963;DHT22;13760;52.588;13.406;2023-07-08T09:23:57;28.50;67.20
25963;DHT22;13760;52.588;13.406;2023-07-08T09:26:29;28.50;65.60
25963;DHT22;13760;52.588;13.406;2023-07-08T09:28:55;28.70;61.90
25963;DHT22;13760;52.588;13.406;2023-07-08T09:31:28;28.70;59.50
25963;DHT22;13760;52.588;13.406;2023-07-08T09:34:35;28.70;53.70
25963;DHT22;13760;52.588;13.406;2023-07-08T09:37:04;28.80;52.10
25963;DHT22;13760;52.588;13.406;2023-07-08T09:39:58;28.90;51.90
25963;DHT22;13760;52.588;13.406;2023-07-08T09:42:32;29.00;53.20
25963;DHT22;13760;52.588;13.406;2023-07-08T09:45:01;28.90;51.20
25963;DHT22;13760;52.588;13.406;2023-07-08T09:47:38;28.80;50.70
25963;DHT22;13760;52.588;13.406;2023-07-08T09:52:47;28.80;46.30
25963;DHT22;13760;52.588;13.406;2023-07-08T09:55:13;28.60;49.60
25963;DHT22;13760;52.588;13.406;2023-07-08T09:57:39;28.40;49.10
25963;DHT22;13760;52.588;13.406;2023-07-08T10:00:13;28.40;51.90
25963;DHT22;13760;52.588;13.406;2023-07-08T10:02:46;28.30;49.10
25963;DHT22;13760;52.588;13.406;2023-07-08T10:06:02;28.30;49.00
25963;DHT22;13760;52.588;13.406;2023-07-08T10:08:17;28.50;50.40
25963;DHT22;13760;52.588;13.406;2023-07-08T10:11:31;28.70;52.40
25963;DHT22;13760;52.588;13.406;2023-07-08T10:13:48;28.70;49.10
25963;DHT22;13760;52.588;13.406;2023-07-08T10:16:24;28.70;51.00
25963;DHT22;13760;52.588;13.406;2023-07-08T10:18:51;28.80;50.00
25963;DHT22;13760;52.588;13.406;2023-07-08T10:26:41;28.80;50.30
25963;DHT22;13760;52.588;13.406;2023-07-08T10:29:42;28.90;48.50
25963;DHT22;13760;52.588;13.406;2023-07-08T10:32:23;28.80;46.70
25963;DHT22;13760;52.588;13.406;2023-07-08T10:48:36;29.30;45.00
25963;DHT22;13760;52.588;13.406;2023-07-08T10:51:13;29.40;44.50
25963;DHT22;13760;52.588;13.406;2023-07-08T10:54:11;29.50;44.60
25963;DHT22;13760;52.588;13.406;2023-07-08T11:06:17;29.90;44.90
25963;DHT22;13760;52.588;13.406;2023-07-08T11:09:24;29.60;44.70
25963;DHT22;13760;52.588;13.406;2023-07-08T11:18:07;29.60;46.40
25963;DHT22;13760;52.588;13.406;2023-07-08T11:21:04;29.60;44.10
25963;DHT22;13760;52.588;13.406;2023-07-08T11:23:55;29.50;43.80
25963;DHT22;13760;52.588;13.406;2023-07-08T11:28:54;29.50;45.30
25963;DHT22;13760;52.588;13.406;2023-07-08T11:31:26;29.60;44.00
25963;DHT22;13760;52.588;13.406;2023-07-08T11:33:57;29.70;44.90
25963;DHT22;13760;52.588;13.406;2023-07-08T11:36:23;29.80;44.70
25963;DHT22;13760;52.588;13.406;2023-07-08T11:38:54;29.80;41.90
25963;DHT22;13760;52.588;13.406;2023-07-08T11:42:05;29.60;42.10
25963;DHT22;13760;52.588;13.406;2023-07-08T11:44:41;29.60;42.30
25963;DHT22;13760;52.588;13.406;2023-07-08T11:47:34;29.80;44.90
25963;DHT22;13760;52.588;13.406;2023-07-08T11:50:11;30.00;43.30
25963;DHT22;13760;52.588;13.406;2023-07-08T11:53:09;29.90;41.10
25963;DHT22;13760;52.588;13.406;2023-07-08T12:07:41;30.30;40.40
25963;DHT22;13760;52.588;13.406;2023-07-08T12:13:12;30.00;40.00
25963;DHT22;13760;52.588;13.406;2023-07-08T12:15:44;29.90;39.20
25963;DHT22;13760;52.588;13.406;2023-07-08T12:18:30;30.00;42.10
25963;DHT22;13760;52.588;13.406;2023-07-08T12:21:16;30.20;41.40
25963;DHT22;13760;52.588;13.406;2023-07-08T12:23:46;30.40;41.30
25963;DHT22;13760;52.588;13.406;2023-07-08T12:26:15;30.50;41.60
25963;DHT22;13760;52.588;13.406;2023-07-08T12:28:42;30.60;41.70
25963;DHT22;13760;52.588;13.406;2023-07-08T12:31:17;30.70;40.30
25963;DHT22;13760;52.588;13.406;2023-07-08T12:34:04;30.90;39.90
25963;DHT22;13760;52.588;13.406;2023-07-08T12:36:37;30.90;40.20
25963;DHT22;13760;52.588;13.406;2023-07-08T12:39:20;30.90;40.70
25963;DHT22;13760;52.588;13.406;2023-07-08T12:41:52;31.00;40.40
25963;DHT22;13760;52.588;13.406;2023-07-08T12:44:42;31.00;38.60
25963;DHT22;13760;52.588;13.406;2023-07-08T12:47:25;30.80;37.50
25963;DHT22;13760;52.588;13.406;2023-07-08T12:50:07;30.80;38.70
25963;DHT22;13760;52.588;13.406;2023-07-08T12:52:42;30.60;38.30
25963;DHT22;13760;52.588;13.406;2023-07-08T12:55:41;30.50;38.10
25963;DHT22;13760;52.588;13.406;2023-07-08T12:58:24;30.50;38.90
25963;DHT22;13760;52.588;13.406;2023-07-08T13:00:57;30.40;38.70
25963;DHT22;13760;52.588;13.406;2023-07-08T13:03:40;30.40;38.30
25963;DHT22;13760;52.588;13.406;2023-07-08T13:06:10;30.40;38.00
25963;DHT22;13760;52.588;13.406;2023-07-08T13:08:46;30.30;38.00
25963;DHT22;13760;52.588;13.406;2023-07-08T13:11:35;30.40;39.80
25963;DHT22;13760;52.588;13.406;2023-07-08T13:14:08;30.60;40.50
25963;DHT22;13760;52.588;13.406;2023-07-08T13:16:36;30.70;40.30
25963;DHT22;13760;52.588;13.406;2023-07-08T13:19:03;30.70;38.90
25963;DHT22;13760;52.588;13.406;2023-07-08T13:21:29;30.70;39.40
25963;DHT22;13760;52.588;13.406;2023-07-08T13:23:57;30.90;40.70
25963;DHT22;13760;52.588;13.406;2023-07-08T13:26:26;31.00;41.50
25963;DHT22;13760;52.588;13.406;2023-07-08T13:29:00;31.20;39.50
25963;DHT22;13760;52.588;13.406;2023-07-08T13:31:33;31.20;39.40
25963;DHT22;13760;52.588;13.406;2023-07-08T13:34:09;31.20;37.70
25963;DHT22;13760;52.588;13.406;2023-07-08T13:36:40;31.20;38.20
25963;DHT22;13760;52.588;13.406;2023-07-08T13:39:08;31.30;37.80
25963;DHT22;13760;52.588;13.406;2023-07-08T13:41:35;31.30;41.20
25963;DHT22;13760;52.588;13.406;2023-07-08T13:44:08;31.30;37.40
25963;DHT22;13760;52.588;13.406;2023-07-08T13:47:00;31.30;39.50
25963;DHT22;13760;52.588;13.406;2023-07-08T13:49:44;31.30;39.40
25963;DHT22;13760;52.588;13.406;2023-07-08T13:52:20;31.20;36.70
25963;DHT22;13760;52.588;13.406;2023-07-08T13:54:57;31.30;38.40
25963;DHT22;13760;52.588;13.406;2023-07-08T13:58:00;31.40;37.10
25963;DHT22;13760;52.588;13.406;2023-07-08T14:00:30;31.50;37.30
25963;DHT22;13760;52.588;13.406;2023-07-08T14:03:11;31.60;37.90
25963;DHT22;13760;52.588;13.406;2023-07-08T14:06:02;31.60;36.30
25963;DHT22;13760;52.588;13.406;2023-07-08T14:08:53;31.40;36.90
25963;DHT22;13760;52.588;13.406;2023-07-08T14:11:28;31.40;36.80
25963;DHT22;13760;52.588;13.406;2023-07-08T14:14:08;31.60;36.70
25963;DHT22;13760;52.588;13.406;2023-07-08T14:17:05;31.60;37.20
25963;DHT22;13760;52.588;13.406;2023-07-08T14:19:40;31.80;37.00
25963;DHT22;13760;52.588;13.406;2023-07-08T14:22:27;32.10;37.00
25963;DHT22;13760;52.588;13.406;2023-07-08T14:25:17;32.20;35.80
25963;DHT22;13760;52.588;13.406;2023-07-08T14:27:53;32.50;36.10
25963;DHT22;13760;52.588;13.406;2023-07-08T14:30:30;32.70;34.00
25963;DHT22;13760;52.588;13.406;2023-07-08T14:33:03;32.80;34.40
25963;DHT22;13760;52.588;13.406;2023-07-08T14:35:55;32.50;33.30
25963;DHT22;13760;52.588;13.406;2023-07-08T14:38:23;32.10;34.20
25963;DHT22;13760;52.588;13.406;2023-07-08T14:41:03;31.90;34.90
25963;DHT22;13760;52.588;13.406;2023-07-08T14:43:31;31.60;35.60
25963;DHT22;13760;52.588;13.406;2023-07-08T14:45:59;31.40;36.80
25963;DHT22;13760;52.588;13.406;2023-07-08T14:48:28;31.30;37.80
25963;DHT22;13760;52.588;13.406;2023-07-08T14:51:12;31.10;37.10
25963;DHT22;13760;52.588;13.406;2023-07-08T14:53:38;30.90;37.30
25963;DHT22;13760;52.588;13.406;2023-07-08T14:56:13;30.80;36.30
25963;DHT22;13760;52.588;13.406;2023-07-08T14:58:41;30.80;37.60
25963;DHT22;13760;52.588;13.406;2023-07-08T15:01:19;30.70;39.80
25963;DHT22;13760;52.588;13.406;2023-07-08T15:03:46;30.70;40.00
25963;DHT22;13760;52.588;13.406;2023-07-08T15:06:11;30.60;38.20
25963;DHT22;13760;52.588;13.406;2023-07-08T15:08:37;30.60;38.20
25963;DHT22;13760;52.588;13.406;2023-07-08T15:11:13;30.50;37.60
25963;DHT22;13760;52.588;13.406;2023-07-08T15:13:46;30.30;36.80
25963;DHT22;13760;52.588;13.406;2023-07-08T15:16:16;30.20;37.80
25963;DHT22;13760;52.588;13.406;2023-07-08T15:18:43;30.20;38.30
25963;DHT22;13760;52.588;13.406;2023-07-08T15:21:12;30.20;39.10
25963;DHT22;13760;52.588;13.406;2023-07-08T15:23:38;30.00;37.20
25963;DHT22;13760;52.588;13.406;2023-07-08T15:26:04;29.90;38.50
25963;DHT22;13760;52.588;13.406;2023-07-08T15:28:40;29.80;38.30
25963;DHT22;13760;52.588;13.406;2023-07-08T15:31:09;29.80;39.00
25963;DHT22;13760;52.588;13.406;2023-07-08T15:33:37;29.80;37.40
25963;DHT22;13760;52.588;13.406;2023-07-08T15:36:02;29.80;38.20
25963;DHT22;13760;52.588;13.406;2023-07-08T15:38:28;29.70;37.60
25963;DHT22;13760;52.588;13.406;2023-07-08T15:40:56;29.70;38.10
25963;DHT22;13760;52.588;13.406;2023-07-08T15:43:42;29.70;36.90
25963;DHT22;13760;52.588;13.406;2023-07-08T15:46:18;29.60;37.90
25963;DHT22;13760;52.588;13.406;2023-07-08T15:49:14;29.60;38.10
25963;DHT22;13760;52.588;13.406;2023-07-08T15:51:40;29.60;38.20
25963;DHT22;13760;52.588;13.406;2023-07-08T15:54:13;29.60;38.10
25963;DHT22;13760;52.588;13.406;2023-07-08T15:57:01;29.60;39.10
25963;DHT22;13760;52.588;13.406;2023-07-08T15:59:52;29.60;38.40
25963;DHT22;13760;52.588;13.406;2023-07-08T16:02:28;29.60;37.80
25963;DHT22;13760;52.588;13.406;2023-07-08T16:05:15;29.50;38.90
25963;DHT22;13760;52.588;13.406;2023-07-08T16:07:54;29.60;38.50
25963;DHT22;13760;52.588;13.406;2023-07-08T16:10:25;29.50;38.70
25963;DHT22;13760;52.588;13.406;2023-07-08T16:13:15;29.50;38.30
25963;DHT22;13760;52.588;13.406;2023-07-08T16:15:46;29.50;38.60
25963;DHT22;13760;52.588;13.406;2023-07-08T16:18:26;29.50;38.60
25963;DHT22;13760;52.588;13.406;2023-07-08T16:21:18;29.40;36.80
25963;DHT22;13760;52.588;13.406;2023-07-08T16:23:56;29.40;38.90
25963;DHT22;13760;52.588;13.406;2023-07-08T16:26:22;29.30;40.40
25963;DHT22;13760;52.588;13.406;2023-07-08T16:28:49;29.30;40.00
25963;DHT22;13760;52.588;13.406;2023-07-08T16:31:17;29.20;40.00
25963;DHT22;13760;52.588;13.406;2023-07-08T16:33:44;29.20;39.90
25963;DHT22;13760;52.588;13.406;2023-07-08T16:36:17;29.30;39.30
25963;DHT22;13760;52.588;13.406;2023-07-08T16:38:44;29.30;39.90
25963;DHT22;13760;52.588;13.406;2023-07-08T16:41:27;29.20;38.90
25963;DHT22;13760;52.588;13.406;2023-07-08T16:43:54;29.30;40.30
25963;DHT22;13760;52.588;13.406;2023-07-08T16:46:21;29.20;39.10
25963;DHT22;13760;52.588;13.406;2023-07-08T16:48:47;29.20;39.50
25963;DHT22;13760;52.588;13.406;2023-07-08T16:51:18;29.20;39.50
25963;DHT22;13760;52.588;13.406;2023-07-08T16:53:48;29.20;40.20
25963;DHT22;13760;52.588;13.406;2023-07-08T16:56:19;29.10;40.40
25963;DHT22;13760;52.588;13.406;2023-07-08T16:58:48;29.10;40.00